Nevada, Ohio
Current Conditions -  °F | °C
As of 9:53 PM on Sunday 21 Dec 2014 (Local Time) from KMNN Reporting Station
Haze Haze  
Wind Chill: 15°   Ceiling: Unl
Heat Index: 23°   Visibility: 5mi
Dew Point: 19°   Wind: 7mph
Humidity: 85%   Direction: 110°ESE
Pressure: 30.18"   Gusts: NA
Location:  40.82°N, 83.13°W
Report Text: KMNN 220253Z AUTO 11006KT 5SM BR CLR M05/M07 A3018 RMK AO2 SLP233 T10501072 56009 TSNO
Loading
Personal Weather Stations






























Interactive Weather Map New forecast layout! Learn more

10-Day Weather Forecast

Advertisements
Track Severe Weather on mobile